sensor_id;sensor_type;location;lat;lon;timestamp;pressure;altitude;pressure_sealevel;temperature
69435;BMP180;56625;54.322;18.582;2024-01-16T16:43:48;99942.80;;;-6.30
69435;BMP180;56625;54.322;18.582;2024-01-16T16:46:19;99939.40;;;-6.30
69435;BMP180;56625;54.322;18.582;2024-01-16T16:48:49;99941.00;;;-6.34
69435;BMP180;56625;54.322;18.582;2024-01-16T16:51:21;99948.60;;;-6.40
69435;BMP180;56625;54.322;18.582;2024-01-16T16:53:50;99950.40;;;-6.40
69435;BMP180;56625;54.322;18.582;2024-01-16T16:56:19;99955.20;;;-6.40
69435;BMP180;56625;54.322;18.582;2024-01-16T16:58:52;99955.80;;;-6.48
69435;BMP180;56625;54.322;18.582;2024-01-16T17:01:20;99958.00;;;-6.50
69435;BMP180;56625;54.322;18.582;2024-01-16T17:03:49;99957.20;;;-6.50
69435;BMP180;56625;54.322;18.582;2024-01-16T17:06:20;99958.20;;;-6.50
69435;BMP180;56625;54.322;18.582;2024-01-16T17:08:49;99961.80;;;-6.50
69435;BMP180;56625;54.322;18.582;2024-01-16T17:11:17;99960.20;;;-6.50
69435;BMP180;56625;54.322;18.582;2024-01-16T17:13:46;99967.60;;;-6.60
69435;BMP180;56625;54.322;18.582;2024-01-16T17:16:14;99970.20;;;-6.60
69435;BMP180;56625;54.322;18.582;2024-01-16T17:18:46;99974.20;;;-6.64
69435;BMP180;56625;54.322;18.582;2024-01-16T17:21:15;99973.60;;;-6.68
69435;BMP180;56625;54.322;18.582;2024-01-16T17:23:44;99984.80;;;-6.60
69435;BMP180;56625;54.322;18.582;2024-01-16T17:26:13;99986.80;;;-6.60
69435;BMP180;56625;54.322;18.582;2024-01-16T17:28:41;99987.80;;;-6.60
69435;BMP180;56625;54.322;18.582;2024-01-16T17:31:10;99985.20;;;-6.60
69435;BMP180;56625;54.322;18.582;2024-01-16T17:33:39;99975.20;;;-6.60
69435;BMP180;56625;54.322;18.582;2024-01-16T17:36:07;99983.40;;;-6.60
69435;BMP180;56625;54.322;18.582;2024-01-16T17:38:39;99978.60;;;-6.60
69435;BMP180;56625;54.322;18.582;2024-01-16T17:41:09;99979.60;;;-6.70
69435;BMP180;56625;54.322;18.582;2024-01-16T17:43:39;99984.00;;;-6.70
69435;BMP180;56625;54.322;18.582;2024-01-16T17:46:08;99986.20;;;-6.80
69435;BMP180;56625;54.322;18.582;2024-01-16T17:48:36;99989.20;;;-6.90
69435;BMP180;56625;54.322;18.582;2024-01-16T17:51:07;100000.80;;;-7.00
69435;BMP180;56625;54.322;18.582;2024-01-16T17:53:36;99998.00;;;-7.10
69435;BMP180;56625;54.322;18.582;2024-01-16T17:56:07;100001.80;;;-7.20
69435;BMP180;56625;54.322;18.582;2024-01-16T17:58:36;100007.40;;;-7.28
69435;BMP180;56625;54.322;18.582;2024-01-16T18:01:04;100012.60;;;-7.30
69435;BMP180;56625;54.322;18.582;2024-01-16T18:03:39;100007.40;;;-7.30
69435;BMP180;56625;54.322;18.582;2024-01-16T18:06:14;100015.60;;;-7.40
69435;BMP180;56625;54.322;18.582;2024-01-16T18:08:45;100014.80;;;-7.50
69435;BMP180;56625;54.322;18.582;2024-01-16T18:11:14;100013.20;;;-7.60
69435;BMP180;56625;54.322;18.582;2024-01-16T18:13:43;100012.40;;;-7.64
69435;BMP180;56625;54.322;18.582;2024-01-16T18:16:12;100017.60;;;-7.64
69435;BMP180;56625;54.322;18.582;2024-01-16T18:18:42;100017.20;;;-7.64
69435;BMP180;56625;54.322;18.582;2024-01-16T18:21:11;100015.20;;;-7.60
69435;BMP180;56625;54.322;18.582;2024-01-16T18:23:40;100017.60;;;-7.70
69435;BMP180;56625;54.322;18.582;2024-01-16T18:26:12;100018.20;;;-7.70
69435;BMP180;56625;54.322;18.582;2024-01-16T18:28:40;100021.20;;;-7.70
69435;BMP180;56625;54.322;18.582;2024-01-16T18:31:11;100012.80;;;-7.80
69435;BMP180;56625;54.322;18.582;2024-01-16T18:33:40;100014.80;;;-7.80
69435;BMP180;56625;54.322;18.582;2024-01-16T18:36:08;100019.20;;;-7.90
69435;BMP180;56625;54.322;18.582;2024-01-16T18:38:38;100023.60;;;-7.90
69435;BMP180;56625;54.322;18.582;2024-01-16T18:41:09;100032.00;;;-8.00
69435;BMP180;56625;54.322;18.582;2024-01-16T18:43:37;100035.40;;;-8.10
69435;BMP180;56625;54.322;18.582;2024-01-16T18:46:05;100035.40;;;-8.12
69435;BMP180;56625;54.322;18.582;2024-01-16T18:48:33;100040.40;;;-8.20
69435;BMP180;56625;54.322;18.582;2024-01-16T18:51:03;100035.60;;;-8.20
69435;BMP180;56625;54.322;18.582;2024-01-16T18:53:32;100034.40;;;-8.20
69435;BMP180;56625;54.322;18.582;2024-01-16T18:56:00;100028.60;;;-8.20
69435;BMP180;56625;54.322;18.582;2024-01-16T18:58:29;100024.80;;;-8.20
69435;BMP180;56625;54.322;18.582;2024-01-16T19:00:57;100028.40;;;-8.20
69435;BMP180;56625;54.322;18.582;2024-01-16T19:03:27;100034.00;;;-8.20
69435;BMP180;56625;54.322;18.582;2024-01-16T19:05:55;100038.40;;;-8.20
69435;BMP180;56625;54.322;18.582;2024-01-16T19:08:24;100039.80;;;-8.24
69435;BMP180;56625;54.322;18.582;2024-01-16T19:10:53;100038.60;;;-8.30
69435;BMP180;56625;54.322;18.582;2024-01-16T19:13:22;100035.00;;;-8.30
69435;BMP180;56625;54.322;18.582;2024-01-16T19:15:52;100043.60;;;-8.30
69435;BMP180;56625;54.322;18.582;2024-01-16T19:18:21;100038.40;;;-8.30
69435;BMP180;56625;54.322;18.582;2024-01-16T19:20:50;100036.20;;;-8.30
69435;BMP180;56625;54.322;18.582;2024-01-16T19:23:19;100035.60;;;-8.30
69435;BMP180;56625;54.322;18.582;2024-01-16T19:25:48;100038.80;;;-8.38
69435;BMP180;56625;54.322;18.582;2024-01-16T19:28:16;100046.80;;;-8.40
69435;BMP180;56625;54.322;18.582;2024-01-16T19:30:45;100047.40;;;-8.40
69435;BMP180;56625;54.322;18.582;2024-01-16T19:33:13;100052.00;;;-8.36
69435;BMP180;56625;54.322;18.582;2024-01-16T19:35:42;100051.20;;;-8.40
69435;BMP180;56625;54.322;18.582;2024-01-16T19:47:39;100030.60;;;-8.50
69435;BMP180;56625;54.322;18.582;2024-01-16T19:50:09;100032.60;;;-8.50
69435;BMP180;56625;54.322;18.582;2024-01-16T19:52:52;100031.00;;;-8.60
69435;BMP180;56625;54.322;18.582;2024-01-16T19:55:24;100032.60;;;-8.60
69435;BMP180;56625;54.322;18.582;2024-01-16T19:57:55;100038.60;;;-8.60
69435;BMP180;56625;54.322;18.582;2024-01-16T20:00:26;100051.00;;;-8.66
69435;BMP180;56625;54.322;18.582;2024-01-16T20:02:55;100057.80;;;-8.70
69435;BMP180;56625;54.322;18.582;2024-01-16T20:05:23;100055.40;;;-8.76
69435;BMP180;56625;54.322;18.582;2024-01-16T20:08:11;100057.60;;;-8.78
69435;BMP180;56625;54.322;18.582;2024-01-16T20:10:39;100061.00;;;-8.80
69435;BMP180;56625;54.322;18.582;2024-01-16T20:13:08;100062.40;;;-8.80
69435;BMP180;56625;54.322;18.582;2024-01-16T20:15:36;100058.80;;;-8.74
69435;BMP180;56625;54.322;18.582;2024-01-16T20:18:04;100058.60;;;-8.70
69435;BMP180;56625;54.322;18.582;2024-01-16T20:20:36;100055.40;;;-8.60
69435;BMP180;56625;54.322;18.582;2024-01-16T20:23:06;100057.40;;;-8.68
69435;BMP180;56625;54.322;18.582;2024-01-16T20:25:36;100067.40;;;-8.70
69435;BMP180;56625;54.322;18.582;2024-01-16T20:28:04;100063.80;;;-8.70
69435;BMP180;56625;54.322;18.582;2024-01-16T20:30:35;100063.40;;;-8.70
69435;BMP180;56625;54.322;18.582;2024-01-16T20:33:04;100062.40;;;-8.70
69435;BMP180;56625;54.322;18.582;2024-01-16T20:35:32;100063.40;;;-8.70
69435;BMP180;56625;54.322;18.582;2024-01-16T20:38:00;100069.80;;;-8.70
69435;BMP180;56625;54.322;18.582;2024-01-16T20:40:28;100063.20;;;-8.70
69435;BMP180;56625;54.322;18.582;2024-01-16T20:42:56;100068.20;;;-8.80
69435;BMP180;56625;54.322;18.582;2024-01-16T20:45:24;100062.60;;;-8.80
69435;BMP180;56625;54.322;18.582;2024-01-16T20:47:52;100065.80;;;-8.72
69435;BMP180;56625;54.322;18.582;2024-01-16T20:50:21;100071.60;;;-8.70
69435;BMP180;56625;54.322;18.582;2024-01-16T20:52:49;100068.80;;;-8.60
69435;BMP180;56625;54.322;18.582;2024-01-16T20:55:17;100058.60;;;-8.60
69435;BMP180;56625;54.322;18.582;2024-01-16T20:57:45;100046.80;;;-8.56
69435;BMP180;56625;54.322;18.582;2024-01-16T21:00:15;100053.00;;;-8.60
69435;BMP180;56625;54.322;18.582;2024-01-16T21:02:44;100049.20;;;-8.60
69435;BMP180;56625;54.322;18.582;2024-01-16T21:05:12;100043.00;;;-8.60
69435;BMP180;56625;54.322;18.582;2024-01-16T21:07:40;100047.40;;;-8.60
69435;BMP180;56625;54.322;18.582;2024-01-16T21:10:09;100040.80;;;-8.60
69435;BMP180;56625;54.322;18.582;2024-01-16T21:12:37;100042.60;;;-8.50
69435;BMP180;56625;54.322;18.582;2024-01-16T21:15:06;100035.40;;;-8.50
69435;BMP180;56625;54.322;18.582;2024-01-16T21:17:35;100034.00;;;-8.40
69435;BMP180;56625;54.322;18.582;2024-01-16T21:20:05;100030.40;;;-8.40
69435;BMP180;56625;54.322;18.582;2024-01-16T21:22:34;100029.60;;;-8.40
69435;BMP180;56625;54.322;18.582;2024-01-16T21:25:05;100035.60;;;-8.40
69435;BMP180;56625;54.322;18.582;2024-01-16T21:27:33;100036.20;;;-8.34
69435;BMP180;56625;54.322;18.582;2024-01-16T21:30:02;100033.00;;;-8.30
69435;BMP180;56625;54.322;18.582;2024-01-16T21:32:30;100032.00;;;-8.20
69435;BMP180;56625;54.322;18.582;2024-01-16T21:34:59;100030.80;;;-8.12
69435;BMP180;56625;54.322;18.582;2024-01-16T21:37:27;100040.80;;;-8.10
69435;BMP180;56625;54.322;18.582;2024-01-16T21:39:55;100036.60;;;-8.10
69435;BMP180;56625;54.322;18.582;2024-01-16T21:42:23;100037.80;;;-8.00
69435;BMP180;56625;54.322;18.582;2024-01-16T21:44:51;100027.60;;;-7.98
69435;BMP180;56625;54.322;18.582;2024-01-16T21:47:21;100029.20;;;-7.90
69435;BMP180;56625;54.322;18.582;2024-01-16T21:49:52;100031.20;;;-7.80
69435;BMP180;56625;54.322;18.582;2024-01-16T21:52:21;100024.60;;;-7.80
69435;BMP180;56625;54.322;18.582;2024-01-16T21:54:50;100026.00;;;-7.80
69435;BMP180;56625;54.322;18.582;2024-01-16T21:57:18;100019.60;;;-7.78
69435;BMP180;56625;54.322;18.582;2024-01-16T21:59:47;100010.20;;;-7.74
69435;BMP180;56625;54.322;18.582;2024-01-16T22:02:15;100012.40;;;-7.72
69435;BMP180;56625;54.322;18.582;2024-01-16T22:04:45;100010.40;;;-7.76
69435;BMP180;56625;54.322;18.582;2024-01-16T22:07:14;100008.60;;;-7.80
69435;BMP180;56625;54.322;18.582;2024-01-16T22:09:42;100003.40;;;-7.90
69435;BMP180;56625;54.322;18.582;2024-01-16T22:12:10;99998.60;;;-7.90
69435;BMP180;56625;54.322;18.582;2024-01-16T22:14:38;100006.00;;;-7.94
69435;BMP180;56625;54.322;18.582;2024-01-16T22:17:07;100010.60;;;-8.00
69435;BMP180;56625;54.322;18.582;2024-01-16T22:19:35;100020.60;;;-8.10
69435;BMP180;56625;54.322;18.582;2024-01-16T22:22:03;100013.80;;;-8.20
69435;BMP180;56625;54.322;18.582;2024-01-16T22:24:31;100022.80;;;-8.20
69435;BMP180;56625;54.322;18.582;2024-01-16T22:27:00;100021.20;;;-8.20
69435;BMP180;56625;54.322;18.582;2024-01-16T22:29:28;100020.00;;;-8.20
69435;BMP180;56625;54.322;18.582;2024-01-16T22:31:56;100019.60;;;-8.20
69435;BMP180;56625;54.322;18.582;2024-01-16T22:34:25;100021.20;;;-8.20
69435;BMP180;56625;54.322;18.582;2024-01-16T22:36:54;100021.00;;;-8.20
69435;BMP180;56625;54.322;18.582;2024-01-16T22:39:22;100024.60;;;-8.20
69435;BMP180;56625;54.322;18.582;2024-01-16T22:41:52;100007.00;;;-8.20
69435;BMP180;56625;54.322;18.582;2024-01-16T22:44:20;100007.60;;;-8.10
69435;BMP180;56625;54.322;18.582;2024-01-16T22:46:50;100001.60;;;-8.10
69435;BMP180;56625;54.322;18.582;2024-01-16T22:49:18;99999.60;;;-8.08
69435;BMP180;56625;54.322;18.582;2024-01-16T22:51:46;100000.60;;;-8.00
69435;BMP180;56625;54.322;18.582;2024-01-16T22:54:15;99996.60;;;-8.00
69435;BMP180;56625;54.322;18.582;2024-01-16T22:56:43;99992.80;;;-8.00
69435;BMP180;56625;54.322;18.582;2024-01-16T22:59:11;99990.20;;;-8.00
69435;BMP180;56625;54.322;18.582;2024-01-16T23:01:40;99987.00;;;-8.10
69435;BMP180;56625;54.322;18.582;2024-01-16T23:04:09;99982.80;;;-8.10
69435;BMP180;56625;54.322;18.582;2024-01-16T23:06:38;99986.60;;;-8.10
69435;BMP180;56625;54.322;18.582;2024-01-16T23:09:06;99984.20;;;-8.10
69435;BMP180;56625;54.322;18.582;2024-01-16T23:11:34;99980.20;;;-8.08
69435;BMP180;56625;54.322;18.582;2024-01-16T23:14:03;99978.40;;;-8.08
69435;BMP180;56625;54.322;18.582;2024-01-16T23:16:32;99977.00;;;-8.08
69435;BMP180;56625;54.322;18.582;2024-01-16T23:19:00;99979.40;;;-8.00
69435;BMP180;56625;54.322;18.582;2024-01-16T23:21:28;99979.20;;;-8.00
69435;BMP180;56625;54.322;18.582;2024-01-16T23:23:57;99972.00;;;-8.00
69435;BMP180;56625;54.322;18.582;2024-01-16T23:26:25;99968.60;;;-8.00
69435;BMP180;56625;54.322;18.582;2024-01-16T23:28:54;99967.20;;;-7.90
69435;BMP180;56625;54.322;18.582;2024-01-16T23:31:23;99972.20;;;-7.90
69435;BMP180;56625;54.322;18.582;2024-01-16T23:33:51;99973.00;;;-7.90
69435;BMP180;56625;54.322;18.582;2024-01-16T23:36:19;99973.60;;;-7.80
69435;BMP180;56625;54.322;18.582;2024-01-16T23:38:47;99970.80;;;-7.80
69435;BMP180;56625;54.322;18.582;2024-01-16T23:41:15;99969.40;;;-7.70
69435;BMP180;56625;54.322;18.582;2024-01-16T23:43:44;99961.80;;;-7.70
69435;BMP180;56625;54.322;18.582;2024-01-16T23:46:13;99948.80;;;-7.70
69435;BMP180;56625;54.322;18.582;2024-01-16T23:48:41;99946.20;;;-7.66
69435;BMP180;56625;54.322;18.582;2024-01-16T23:51:12;99948.00;;;-7.60
69435;BMP180;56625;54.322;18.582;2024-01-16T23:53:40;99947.60;;;-7.60
69435;BMP180;56625;54.322;18.582;2024-01-16T23:56:08;99937.60;;;-7.60
69435;BMP180;56625;54.322;18.582;2024-01-16T23:58:38;99945.60;;;-7.60
